createdAt,value
2022-08-20T00:01:10.777Z,15.10
2022-08-20T00:05:25.236Z,15.00
2022-08-20T00:09:36.519Z,14.90
2022-08-20T00:13:49.215Z,14.90
2022-08-20T00:18:01.115Z,14.90
2022-08-20T00:22:10.375Z,14.80
2022-08-20T00:26:20.476Z,14.70
2022-08-20T00:30:29.896Z,14.60
2022-08-20T00:34:41.234Z,14.50
2022-08-20T00:38:50.495Z,14.50
2022-08-20T00:43:02.655Z,14.30
2022-08-20T00:47:11.937Z,14.30
2022-08-20T00:51:29.909Z,14.10
2022-08-20T00:55:41.395Z,14.00
2022-08-20T00:59:52.575Z,14.00
2022-08-20T01:04:01.995Z,13.80
2022-08-20T01:08:13.719Z,13.70
2022-08-20T01:12:24.795Z,13.60
2022-08-20T01:16:35.955Z,13.70
2022-08-20T01:20:58.298Z,13.70
2022-08-20T01:25:19.195Z,13.60
2022-08-20T01:29:37.336Z,13.70
2022-08-20T01:33:51.260Z,13.80
2022-08-20T01:38:01.118Z,13.70
2022-08-20T01:42:20.955Z,13.50
2022-08-20T01:46:38.949Z,13.40
2022-08-20T01:51:02.518Z,13.30
2022-08-20T01:55:12.675Z,13.30
2022-08-20T01:59:22.455Z,13.30
2022-08-20T02:03:38.824Z,13.20
2022-08-20T02:07:50.835Z,13.20
2022-08-20T02:12:00.534Z,13.20
2022-08-20T02:16:11.156Z,13.20
2022-08-20T02:20:29.199Z,13.00
2022-08-20T02:24:38.834Z,12.90
2022-08-20T02:28:50.134Z,12.90
2022-08-20T02:32:59.743Z,12.90
2022-08-20T02:37:11.534Z,12.80
2022-08-20T02:41:22.536Z,12.70
2022-08-20T02:45:36.555Z,12.70
2022-08-20T02:49:45.814Z,12.70
2022-08-20T02:53:56.636Z,12.60
2022-08-20T02:58:06.174Z,12.70
2022-08-20T03:02:15.460Z,12.60
2022-08-20T03:06:24.817Z,12.60
2022-08-20T03:10:38.700Z,12.60
2022-08-20T03:14:48.118Z,12.60
2022-08-20T03:18:57.654Z,12.50
2022-08-20T03:23:07.615Z,12.50
2022-08-20T03:27:18.617Z,12.50
2022-08-20T03:31:31.816Z,12.50
2022-08-20T03:35:41.416Z,12.50
2022-08-20T03:39:50.748Z,12.50
2022-08-20T03:44:01.777Z,12.40
2022-08-20T03:48:13.057Z,12.20
2022-08-20T03:52:22.558Z,12.20
2022-08-20T03:56:32.076Z,12.20
2022-08-20T04:00:45.156Z,12.30
2022-08-20T04:04:55.477Z,12.20
2022-08-20T04:09:04.963Z,12.20
2022-08-20T04:13:14.916Z,12.20
2022-08-20T04:17:28.976Z,12.10
2022-08-20T04:21:40.053Z,12.10
2022-08-20T04:25:50.360Z,12.10
2022-08-20T04:30:00.274Z,12.00
2022-08-20T04:34:11.277Z,12.00
2022-08-20T04:38:22.997Z,11.90
2022-08-20T04:42:32.257Z,11.80
2022-08-20T04:46:42.454Z,11.70
2022-08-20T04:50:54.694Z,11.60
2022-08-20T04:55:04.396Z,11.60
2022-08-20T04:59:15.374Z,11.60
2022-08-20T05:03:25.756Z,11.70
2022-08-20T05:07:41.036Z,11.70
2022-08-20T05:11:50.837Z,11.70
2022-08-20T05:16:06.234Z,11.70
2022-08-20T05:20:22.982Z,11.70
2022-08-20T05:24:34.117Z,11.80
2022-08-20T05:28:54.436Z,11.70
2022-08-20T05:33:11.696Z,11.80
2022-08-20T05:37:21.156Z,11.70
2022-08-20T05:41:32.057Z,11.80
2022-08-20T05:45:42.694Z,11.70
2022-08-20T05:49:52.439Z,11.70
2022-08-20T05:54:01.815Z,11.70
2022-08-20T05:58:19.210Z,11.70
2022-08-20T06:02:46.392Z,11.80
2022-08-20T06:07:01.952Z,11.90
2022-08-20T06:11:12.093Z,11.90
2022-08-20T06:15:23.792Z,12.00
2022-08-20T06:19:41.717Z,12.00
2022-08-20T06:23:57.875Z,12.10
2022-08-20T06:28:08.991Z,12.10
2022-08-20T06:32:32.498Z,12.20
2022-08-20T06:36:43.134Z,12.40
2022-08-20T06:40:52.892Z,12.50
2022-08-20T06:45:16.314Z,12.70
2022-08-20T06:50:34.454Z,12.80
2022-08-20T06:55:36.030Z,13.10
2022-08-20T06:59:55.152Z,13.40
2022-08-20T07:19:00.331Z,14.30
2022-08-20T09:00:53.472Z,19.50
2022-08-20T09:05:15.513Z,19.80
2022-08-20T09:09:31.541Z,19.80
2022-08-20T09:18:24.433Z,19.90
2022-08-20T09:22:34.231Z,20.20
2022-08-20T09:26:57.334Z,20.40
2022-08-20T09:31:07.055Z,20.60
2022-08-20T09:35:16.151Z,20.80
2022-08-20T09:39:24.971Z,20.90
2022-08-20T09:43:35.553Z,20.90
2022-08-20T09:47:56.824Z,20.90
2022-08-20T09:52:09.617Z,21.00
2022-08-20T09:56:19.171Z,20.90
2022-08-20T10:00:29.976Z,21.10
2022-08-20T10:04:39.113Z,21.30
2022-08-20T10:08:51.010Z,21.10
2022-08-20T10:13:00.092Z,21.30
2022-08-20T10:17:10.436Z,21.50
2022-08-20T10:21:19.591Z,21.50
2022-08-20T10:25:29.125Z,21.50
2022-08-20T10:29:38.190Z,21.70
2022-08-20T10:33:48.614Z,21.70
2022-08-20T10:37:57.828Z,21.50
2022-08-20T10:42:07.393Z,21.70
2022-08-20T10:46:16.911Z,21.60
2022-08-20T10:50:30.207Z,21.70
2022-08-20T10:55:01.372Z,21.60
2022-08-20T10:59:15.272Z,21.70
2022-08-20T11:03:27.272Z,21.80
2022-08-20T11:07:55.227Z,21.90
2022-08-20T11:12:11.952Z,22.10
2022-08-20T11:16:21.511Z,22.10
2022-08-20T11:20:34.833Z,22.00
2022-08-20T11:24:46.391Z,22.10
2022-08-20T11:28:57.731Z,22.30
2022-08-20T11:33:07.933Z,22.30
2022-08-20T11:37:20.571Z,22.50
2022-08-20T11:41:31.773Z,22.50
2022-08-20T11:45:41.006Z,22.60
2022-08-20T11:50:00.492Z,22.70
2022-08-20T11:54:09.670Z,22.90
2022-08-20T11:58:22.751Z,23.10
2022-08-20T12:02:36.832Z,23.30
2022-08-20T12:06:49.035Z,23.30
2022-08-20T12:10:59.486Z,23.40
2022-08-20T12:15:21.752Z,23.30
2022-08-20T12:19:31.912Z,23.50
2022-08-20T12:23:41.211Z,23.60
2022-08-20T12:27:52.713Z,23.60
2022-08-20T12:32:06.432Z,23.60
2022-08-20T12:36:15.655Z,23.50
2022-08-20T12:40:32.192Z,23.40
2022-08-20T12:44:55.991Z,23.30
2022-08-20T12:49:06.712Z,23.10
2022-08-20T12:53:15.970Z,23.20
2022-08-20T12:57:29.551Z,23.30
2022-08-20T13:01:38.857Z,23.10
2022-08-20T13:05:50.615Z,22.90
2022-08-20T13:10:01.690Z,23.00
2022-08-20T13:14:11.435Z,23.10
2022-08-20T13:18:20.757Z,22.90
2022-08-20T13:22:31.371Z,22.80
2022-08-20T13:26:40.411Z,22.80
2022-08-20T13:30:49.712Z,23.00
2022-08-20T13:34:58.833Z,23.10
2022-08-20T13:39:09.937Z,23.10
2022-08-20T13:43:19.152Z,22.90
2022-08-20T13:47:33.815Z,22.90
2022-08-20T13:56:52.713Z,23.10
2022-08-20T14:01:08.628Z,23.30
2022-08-20T14:05:19.134Z,23.20
2022-08-20T14:09:39.615Z,23.00
2022-08-20T14:13:51.650Z,22.60
2022-08-20T14:18:01.723Z,22.30
2022-08-20T14:22:14.761Z,22.20
2022-08-20T14:26:23.834Z,22.20
2022-08-20T14:30:34.553Z,22.20
2022-08-20T14:34:44.033Z,22.30
2022-08-20T14:38:53.632Z,22.50
2022-08-20T14:43:03.714Z,22.60
2022-08-20T14:47:16.932Z,22.60
2022-08-20T14:51:26.030Z,22.40
2022-08-20T14:55:38.794Z,22.40
2022-08-20T14:59:48.652Z,22.40
2022-08-20T15:03:59.261Z,22.50
2022-08-20T15:08:10.442Z,22.40
2022-08-20T15:12:20.494Z,22.50
2022-08-20T15:16:29.691Z,22.50
2022-08-20T15:20:40.672Z,22.30
2022-08-20T15:24:50.031Z,22.10
2022-08-20T15:29:04.852Z,22.00
2022-08-20T15:33:20.391Z,22.00
2022-08-20T15:41:58.151Z,21.50
2022-08-20T15:46:14.531Z,21.30
2022-08-20T15:54:54.981Z,21.50
2022-08-20T15:59:20.015Z,21.70
2022-08-20T16:03:46.232Z,21.60
2022-08-20T16:08:10.010Z,21.70
2022-08-20T16:12:37.792Z,21.50
2022-08-20T16:17:04.811Z,21.60
2022-08-20T16:21:19.371Z,21.90
2022-08-20T16:25:59.547Z,21.90
2022-08-20T16:34:45.933Z,21.60
2022-08-20T16:39:07.470Z,21.40
2022-08-20T16:43:23.950Z,21.30
2022-08-20T16:47:50.050Z,21.30
2022-08-20T16:56:35.271Z,21.20
2022-08-20T17:05:15.171Z,21.40
2022-08-20T17:09:41.796Z,21.30
2022-08-20T17:14:11.596Z,21.30
2022-08-20T17:18:24.931Z,21.20
2022-08-20T17:22:43.932Z,21.00
2022-08-20T17:27:03.550Z,20.80
2022-08-20T17:31:12.990Z,20.50
2022-08-20T17:35:34.591Z,20.40
2022-08-20T17:39:48.904Z,20.20
2022-08-20T17:44:22.272Z,20.20
2022-08-20T17:48:45.531Z,20.10
2022-08-20T17:53:10.810Z,20.00
2022-08-20T18:07:58.787Z,19.70
2022-08-20T18:12:35.631Z,19.60
2022-08-20T18:22:02.848Z,19.60
2022-08-20T18:26:16.028Z,19.50
2022-08-20T18:30:28.568Z,19.50
2022-08-20T18:34:44.348Z,19.40
2022-08-20T18:44:33.027Z,19.40
2022-08-20T18:49:13.108Z,19.30
2022-08-20T18:53:31.695Z,19.20
2022-08-20T18:57:57.769Z,19.10
2022-08-20T19:02:27.406Z,19.00
2022-08-20T19:06:49.308Z,18.90
2022-08-20T19:11:06.084Z,18.90
2022-08-20T19:15:19.908Z,18.80
2022-08-20T19:19:33.033Z,18.80
2022-08-20T19:23:48.549Z,18.80
2022-08-20T19:28:00.868Z,18.80
2022-08-20T19:32:20.660Z,18.80
2022-08-20T19:36:35.307Z,18.80
2022-08-20T19:40:48.068Z,18.70
2022-08-20T19:45:04.708Z,18.70
2022-08-20T19:49:29.549Z,18.60
2022-08-20T19:53:47.728Z,18.50
2022-08-20T19:58:05.250Z,18.50
2022-08-20T20:02:20.679Z,18.50
2022-08-20T20:06:37.089Z,18.40
2022-08-20T20:10:53.150Z,18.30
2022-08-20T20:15:03.170Z,18.30
2022-08-20T20:19:30.153Z,18.20
2022-08-20T20:23:53.389Z,18.20
2022-08-20T20:28:13.729Z,18.20
2022-08-20T20:32:28.439Z,18.10
2022-08-20T20:36:41.128Z,18.10
2022-08-20T20:40:55.609Z,18.10
2022-08-20T20:45:16.958Z,18.10
2022-08-20T20:49:30.188Z,18.00
2022-08-20T20:53:53.312Z,18.00
2022-08-20T20:58:05.962Z,18.00
2022-08-20T21:02:34.174Z,18.00
2022-08-20T21:06:44.132Z,18.00
2022-08-20T21:10:53.809Z,18.00
2022-08-20T21:15:05.009Z,18.00
2022-08-20T21:19:14.907Z,18.10
2022-08-20T21:23:40.282Z,18.00
2022-08-20T21:27:56.729Z,18.10
2022-08-20T21:32:08.164Z,18.10
2022-08-20T21:36:21.810Z,18.10
2022-08-20T21:40:34.409Z,18.10
2022-08-20T21:50:24.409Z,18.10
2022-08-20T21:54:40.469Z,18.00
2022-08-20T21:58:56.429Z,18.00
2022-08-20T22:03:15.130Z,17.80
2022-08-20T22:07:28.388Z,17.80
2022-08-20T22:11:42.068Z,17.70
2022-08-20T22:16:07.850Z,17.60
2022-08-20T22:20:20.408Z,17.40
2022-08-20T22:24:41.409Z,17.40
2022-08-20T22:28:54.267Z,17.30
2022-08-20T22:33:25.029Z,17.20
2022-08-20T22:37:37.990Z,17.10
2022-08-20T22:41:55.469Z,17.10
2022-08-20T22:46:10.328Z,17.00
2022-08-20T22:50:24.168Z,17.00
2022-08-20T22:54:44.717Z,17.00
2022-08-20T22:59:00.769Z,16.90
2022-08-20T23:03:13.695Z,16.80
2022-08-20T23:07:29.367Z,16.70
2022-08-20T23:11:42.129Z,16.60
2022-08-20T23:15:58.328Z,16.60
2022-08-20T23:20:16.306Z,16.60
2022-08-20T23:24:32.147Z,16.50
2022-08-20T23:28:49.368Z,16.50
2022-08-20T23:33:09.629Z,16.30
2022-08-20T23:37:22.409Z,16.30
2022-08-20T23:41:33.908Z,16.30
2022-08-20T23:45:47.547Z,16.30
2022-08-20T23:50:15.507Z,16.40
2022-08-20T23:54:33.148Z,16.40
2022-08-20T23:58:46.947Z,16.30
